48CO weather

Shaull Farm Airstrip
Nunn, Colorado, United States

Public forecast

Using degrees Fahrenheit for public forecast. Weather courtesy of forecast.io.

METAR (pilot weather report)

Closest report is Greeley–Weld County Airport, 18.3 nm (33.9 km) SSE. Retrieved 2019/08/25 23:56 UTC (5 minutes ago):

KGXY 252356Z AUTO 32005KT 10SM 33/09 A2983 RMK AO2 SLP055 6//// T03330094 10367 20322 56013 $

TAF (pilot weather forecast)

Forecast is more than 12 hours old.

Closest forecast is Cheyenne Regional Jerry Olson Field, 26.1 nm (48.4 km) N. Retrieved 2019/08/25 00:22 UTC (24 hours ago):

TAF KCYS 252320Z 2600/2624 29015G25KT P6SM SCT120 FM260200 31012KT P6SM SKC FM260600 35014G25KT P6SM SCT100